New Jersey Responder — WBO8578 — position and weather

sailwx.info

Track history (hours):
 
Tides and Currents Weather Stations Pressure Air Temp Water Temp Dewpoint Dewpoint Depression Visibility Wind Speed Wind Dir Waves Ship Positions

New Jersey Responder

Owner: MARINE SPILL RESPONSE CORP, HERNDON, VA. More information available from US FCC via Universal Licensing System and Coast Guard Vessel Documentation Center.

Last reported at 2016-Aug-28 11:26 UTC. Time now 2016-Aug-29 14:42 UTC.
Position N 40°32' W 074°15'.

; draft 4 m.

Type: Pollution control. MMSI: 366594000.

Date/timePositionNaut miles runAvg speedWind from/ knotsBaromVisibWave heightAir tempDewpointWater temp
2016-Aug-28 11:26N 40°32' W 074°15'0 0.0
2016-Aug-28 10:23N 40°32' W 074°15'0 0.0
2016-Aug-28 09:31N 40°32' W 074°15'0 0.0
2016-Aug-28 07:23N 40°32' W 074°15'0 0.0
2016-Aug-28 06:14N 40°32' W 074°15'0 0.0
2016-Aug-28 05:32N 40°32' W 074°15'0 0.0
2016-Aug-28 04:08N 40°32' W 074°15'0 0.0
2016-Aug-28 03:26N 40°32' W 074°15'  
2016-Aug-18 17:04N 40°30' W 074°08'3 4.9
2016-Aug-18 16:32N 40°30' W 074°05'1 0.5
2016-Aug-18 15:25N 40°30' W 074°04'1 1.0
2016-Aug-18 14:25N 40°30' W 074°06'1 1.1
2016-Aug-18 13:17N 40°30' W 074°07'  
Track history (hours):
 
Tides and Currents Weather Stations Pressure Air Temp Water Temp Dewpoint Dewpoint Depression Visibility Wind Speed Wind Dir Waves Ship Positions

New Jersey Responder

Owner: MARINE SPILL RESPONSE CORP, HERNDON, VA. More information available from US FCC via Universal Licensing System and Coast Guard Vessel Documentation Center.

Last reported at 2016-Aug-28 11:26 UTC. Time now 2016-Aug-29 14:42 UTC.
Position N 40°32' W 074°15'.

; draft 4 m.

Type: Pollution control. MMSI: 366594000.

Date/timePositionNaut miles runAvg speedWind from/ knotsBaromVisibWave heightAir tempDewpointWater temp
2016-Aug-28 11:26N 40°32' W 074°15'0 0.0
2016-Aug-28 10:23N 40°32' W 074°15'0 0.0
2016-Aug-28 09:31N 40°32' W 074°15'0 0.0
2016-Aug-28 07:23N 40°32' W 074°15'0 0.0
2016-Aug-28 06:14N 40°32' W 074°15'0 0.0
2016-Aug-28 05:32N 40°32' W 074°15'0 0.0
2016-Aug-28 04:08N 40°32' W 074°15'0 0.0
2016-Aug-28 03:26N 40°32' W 074°15'  
2016-Aug-18 17:04N 40°30' W 074°08'3 4.9
2016-Aug-18 16:32N 40°30' W 074°05'1 0.5
2016-Aug-18 15:25N 40°30' W 074°04'1 1.0
2016-Aug-18 14:25N 40°30' W 074°06'1 1.1
2016-Aug-18 13:17N 40°30' W 074°07'  

Dump ship's entire track history